createdAt,value
2019-02-06T00:00:12.446Z,-2.83
2019-02-06T00:01:12.436Z,-2.90
2019-02-06T00:02:12.444Z,-2.91
2019-02-06T00:03:12.414Z,-2.76
2019-02-06T00:04:15.316Z,-2.82
2019-02-06T00:05:14.356Z,-2.78
2019-02-06T00:06:12.382Z,-2.82
2019-02-06T00:07:12.372Z,-2.75
2019-02-06T00:08:12.394Z,-2.73
2019-02-06T00:09:12.349Z,-2.64
2019-02-06T00:10:12.343Z,-2.68
2019-02-06T00:11:12.330Z,-2.68
2019-02-06T00:12:12.324Z,-2.64
2019-02-06T00:13:12.326Z,-2.60
2019-02-06T00:14:12.327Z,-2.64
2019-02-06T00:15:12.311Z,-2.64
2019-02-06T00:16:12.293Z,-2.70
2019-02-06T00:17:12.267Z,-2.68
2019-02-06T00:18:12.268Z,-2.75
2019-02-06T00:19:12.281Z,-2.76
2019-02-06T00:20:12.254Z,-2.78
2019-02-06T00:21:12.225Z,-2.73
2019-02-06T00:22:12.219Z,-2.62
2019-02-06T00:23:12.212Z,-2.68
2019-02-06T00:24:12.196Z,-2.67
2019-02-06T00:25:12.195Z,-2.78
2019-02-06T00:26:12.189Z,-2.75
2019-02-06T00:27:12.174Z,-2.75
2019-02-06T00:28:12.151Z,-2.61
2019-02-06T00:29:12.149Z,-2.62
2019-02-06T00:30:12.130Z,-2.72
2019-02-06T00:31:12.132Z,-2.57
2019-02-06T00:32:12.135Z,-2.70
2019-02-06T00:33:12.113Z,-2.67
2019-02-06T00:34:12.092Z,-2.73
2019-02-06T00:35:12.079Z,-2.75
2019-02-06T00:36:12.072Z,-2.78
2019-02-06T00:37:12.063Z,-2.65
2019-02-06T00:38:12.072Z,-2.62
2019-02-06T00:39:12.041Z,-2.70
2019-02-06T00:40:12.032Z,-2.70
2019-02-06T00:41:12.018Z,-2.64
2019-02-06T00:42:12.015Z,-2.70
2019-02-06T00:43:11.999Z,-2.61
2019-02-06T00:44:12.010Z,-2.81
2019-02-06T00:45:11.980Z,-2.81
2019-02-06T00:46:11.970Z,-2.88
2019-02-06T00:47:11.964Z,-2.93
2019-02-06T00:48:11.948Z,-2.91
2019-02-06T00:49:11.938Z,-2.94
2019-02-06T00:50:11.947Z,-2.94
2019-02-06T00:51:11.919Z,-2.86
2019-02-06T00:52:11.907Z,-2.91
2019-02-06T00:53:11.897Z,-2.99
2019-02-06T00:54:11.888Z,-3.03
2019-02-06T00:55:11.875Z,-2.85
2019-02-06T00:56:11.888Z,-2.91
2019-02-06T00:57:11.859Z,-2.96
2019-02-06T00:58:11.849Z,-2.94
2019-02-06T00:59:11.839Z,-3.00
2019-02-06T01:00:11.827Z,-3.17
2019-02-06T01:01:11.820Z,-3.14
2019-02-06T01:02:11.828Z,-3.18
2019-02-06T01:03:11.795Z,-3.17
2019-02-06T01:04:11.782Z,-3.22
2019-02-06T01:05:11.776Z,-3.19
2019-02-06T01:06:11.763Z,-3.33
2019-02-06T01:07:11.760Z,-3.25
2019-02-06T01:08:11.785Z,-3.36
2019-02-06T01:09:11.734Z,-3.30
2019-02-06T01:10:11.724Z,-3.29
2019-02-06T01:11:11.718Z,-3.25
2019-02-06T01:12:11.706Z,-3.29
2019-02-06T01:13:11.690Z,-3.30
2019-02-06T01:14:11.709Z,-3.22
2019-02-06T01:15:11.674Z,-3.29
2019-02-06T01:16:11.661Z,-3.30
2019-02-06T01:17:11.657Z,-3.28
2019-02-06T01:18:11.654Z,-3.22
2019-02-06T01:19:11.632Z,-3.35
2019-02-06T01:20:11.667Z,-3.32
2019-02-06T01:21:11.609Z,-3.35
2019-02-06T01:22:11.603Z,-3.30
2019-02-06T01:23:11.592Z,-3.38
2019-02-06T01:24:11.590Z,-3.32
2019-02-06T01:25:11.574Z,-3.42
2019-02-06T01:26:11.579Z,-3.36
2019-02-06T01:27:11.557Z,-3.40
2019-02-06T01:28:11.539Z,-3.42
2019-02-06T01:29:11.533Z,-3.50
2019-02-06T01:30:11.523Z,-3.43
2019-02-06T01:31:11.513Z,-3.51
2019-02-06T01:32:11.526Z,-3.57
2019-02-06T01:33:11.491Z,-3.48
2019-02-06T01:34:11.493Z,-3.50
2019-02-06T01:35:11.472Z,-3.57
2019-02-06T01:36:11.465Z,-3.54
2019-02-06T01:37:11.460Z,-3.50
2019-02-06T01:38:11.462Z,-3.42
2019-02-06T01:39:11.427Z,-3.63
2019-02-06T01:40:11.424Z,-3.48
2019-02-06T01:41:11.410Z,-3.58
2019-02-06T01:42:11.404Z,-3.61
2019-02-06T01:43:11.389Z,-3.68
2019-02-06T01:44:11.409Z,-3.58
2019-02-06T01:45:11.373Z,-3.61
2019-02-06T01:46:11.361Z,-3.63
2019-02-06T01:47:11.353Z,-3.60
2019-02-06T01:48:11.343Z,-3.63
2019-02-06T01:49:11.334Z,-3.71
2019-02-06T01:50:11.338Z,-3.80
2019-02-06T01:51:11.311Z,-3.71
2019-02-06T01:52:11.297Z,-3.72
2019-02-06T01:53:11.290Z,-3.65
2019-02-06T01:54:11.284Z,-3.68
2019-02-06T01:55:11.271Z,-3.71
2019-02-06T01:56:11.275Z,-3.86
2019-02-06T01:57:11.246Z,-3.86
2019-02-06T01:58:11.240Z,-3.77
2019-02-06T01:59:11.228Z,-3.79
2019-02-06T02:00:11.224Z,-3.76
2019-02-06T02:01:11.217Z,-3.82
2019-02-06T02:02:11.220Z,-3.75
2019-02-06T02:03:11.190Z,-3.83
2019-02-06T02:04:11.176Z,-3.86
2019-02-06T02:05:11.169Z,-3.83
2019-02-06T02:06:11.159Z,-3.86
2019-02-06T02:07:11.149Z,-3.87
2019-02-06T02:08:11.164Z,-3.87
2019-02-06T02:09:11.127Z,-3.80
2019-02-06T02:10:11.118Z,-3.77
2019-02-06T02:11:11.109Z,-3.77
2019-02-06T02:12:11.107Z,-3.91
2019-02-06T02:13:11.110Z,-3.77
2019-02-06T02:14:11.099Z,-3.72
2019-02-06T02:15:11.068Z,-3.86
2019-02-06T02:16:11.054Z,-3.83
2019-02-06T02:17:11.047Z,-3.88
2019-02-06T02:18:11.038Z,-3.82
2019-02-06T02:19:11.029Z,-3.94
2019-02-06T02:20:11.045Z,-3.88
2019-02-06T02:21:11.013Z,-3.94
2019-02-06T02:22:10.996Z,-3.98
2019-02-06T02:23:10.983Z,-4.00
2019-02-06T02:24:10.978Z,-3.96
2019-02-06T02:25:10.965Z,-3.91
2019-02-06T02:26:10.974Z,-3.93
2019-02-06T02:27:10.945Z,-3.87
2019-02-06T02:28:10.941Z,-3.90
2019-02-06T02:29:10.924Z,-3.83
2019-02-06T02:30:10.921Z,-3.87
2019-02-06T02:31:10.903Z,-3.79
2019-02-06T02:32:10.933Z,-3.87
2019-02-06T02:33:10.888Z,-3.91
2019-02-06T02:34:10.884Z,-3.94
2019-02-06T02:35:10.871Z,-3.91
2019-02-06T02:36:16.069Z,-3.83
2019-02-06T02:37:11.862Z,-3.93
2019-02-06T02:38:10.834Z,-3.98
2019-02-06T02:39:10.826Z,-4.06
2019-02-06T02:40:10.819Z,-4.11
2019-02-06T02:41:10.808Z,-4.15
2019-02-06T02:42:10.797Z,-4.09
2019-02-06T02:43:10.800Z,-4.14
2019-02-06T02:44:10.774Z,-4.22
2019-02-06T02:45:10.765Z,-4.05
2019-02-06T02:46:10.749Z,-3.98
2019-02-06T02:47:10.746Z,-4.06
2019-02-06T02:48:10.803Z,-4.05
2019-02-06T02:49:10.736Z,-4.12
2019-02-06T02:50:10.710Z,-4.04
2019-02-06T02:51:10.699Z,-4.04
2019-02-06T02:52:10.693Z,-4.04
2019-02-06T02:53:10.680Z,-4.01
2019-02-06T02:54:10.709Z,-4.01
2019-02-06T02:55:10.680Z,-4.15
2019-02-06T02:56:10.651Z,-4.11
2019-02-06T02:57:10.635Z,-4.19
2019-02-06T02:58:10.626Z,-4.14
2019-02-06T02:59:10.619Z,-4.09
2019-02-06T03:00:10.606Z,-4.12
2019-02-06T03:01:10.617Z,-4.12
2019-02-06T03:02:10.593Z,-4.19
2019-02-06T03:03:10.579Z,-4.15
2019-02-06T03:04:10.572Z,-4.25
2019-02-06T03:05:10.581Z,-4.18
2019-02-06T03:06:10.550Z,-4.18
2019-02-06T03:07:10.574Z,-4.00
2019-02-06T03:08:10.530Z,-4.08
2019-02-06T03:09:10.520Z,-4.09
2019-02-06T03:10:10.507Z,-4.06
2019-02-06T03:11:10.494Z,-4.05
2019-02-06T03:12:10.487Z,-4.00
2019-02-06T03:13:10.583Z,-3.90
2019-02-06T03:14:10.464Z,-3.87
2019-02-06T03:15:10.593Z,-3.88
2019-02-06T03:16:10.447Z,-3.87
2019-02-06T03:17:10.443Z,-3.83
2019-02-06T03:18:10.423Z,-3.91
2019-02-06T03:19:10.429Z,-3.90
2019-02-06T03:20:10.403Z,-3.96
2019-02-06T03:21:10.394Z,-3.93
2019-02-06T03:22:10.384Z,-4.05
2019-02-06T03:23:10.371Z,-3.98
2019-02-06T03:24:10.369Z,-4.01
2019-02-06T03:25:10.371Z,-4.01
2019-02-06T03:26:10.344Z,-4.05
2019-02-06T03:27:10.335Z,-4.04
2019-02-06T03:28:10.321Z,-4.08
2019-02-06T03:29:10.315Z,-4.01
2019-02-06T03:30:10.305Z,-4.04
2019-02-06T03:31:10.312Z,-4.06
2019-02-06T03:32:10.280Z,-4.05
2019-02-06T03:33:10.269Z,-3.94
2019-02-06T03:34:10.255Z,-4.00
2019-02-06T03:35:10.249Z,-3.96
2019-02-06T03:36:10.244Z,-3.96
2019-02-06T03:37:10.243Z,-4.00
2019-02-06T03:38:10.220Z,-3.91
2019-02-06T03:39:10.214Z,-3.88
2019-02-06T03:40:10.297Z,-3.96
2019-02-06T03:41:10.188Z,-3.88
2019-02-06T03:42:10.192Z,-3.90
2019-02-06T03:43:10.204Z,-3.83
2019-02-06T03:44:10.165Z,-3.88
2019-02-06T03:45:10.262Z,-3.77
2019-02-06T03:46:10.141Z,-3.83
2019-02-06T03:47:10.169Z,-3.79
2019-02-06T03:48:10.118Z,-3.77
2019-02-06T03:49:10.121Z,-3.72
2019-02-06T03:50:10.101Z,-3.75
2019-02-06T03:51:10.091Z,-3.82
2019-02-06T03:52:10.072Z,-3.80
2019-02-06T03:53:10.066Z,-3.82
2019-02-06T03:54:10.058Z,-3.76
2019-02-06T03:55:10.060Z,-3.75
2019-02-06T03:56:10.034Z,-3.76
2019-02-06T03:57:10.028Z,-3.82
2019-02-06T03:58:10.016Z,-3.77
2019-02-06T03:59:10.003Z,-3.80
2019-02-06T04:00:09.995Z,-3.80
2019-02-06T04:01:11.471Z,-3.83
2019-02-06T04:02:09.976Z,-3.90
2019-02-06T04:03:09.963Z,-3.87
2019-02-06T04:04:09.955Z,-3.90
2019-02-06T04:05:09.944Z,-3.96
2019-02-06T04:06:09.942Z,-4.01
2019-02-06T04:07:09.939Z,-4.06
2019-02-06T04:08:09.919Z,-4.08
2019-02-06T04:09:09.907Z,-4.08
2019-02-06T04:10:09.890Z,-4.05
2019-02-06T04:11:09.887Z,-4.11
2019-02-06T04:12:09.876Z,-4.16
2019-02-06T04:13:09.880Z,-4.14
2019-02-06T04:14:09.853Z,-4.15
2019-02-06T04:15:09.850Z,-4.11
2019-02-06T04:16:09.925Z,-4.08
2019-02-06T04:17:09.827Z,-4.01
2019-02-06T04:18:09.814Z,-4.06
2019-02-06T04:19:09.829Z,-4.01
2019-02-06T04:20:09.787Z,-4.01
2019-02-06T04:21:09.785Z,-4.08
2019-02-06T04:22:09.774Z,-4.22
2019-02-06T04:23:09.762Z,-4.15
2019-02-06T04:24:09.752Z,-4.12
2019-02-06T04:25:09.761Z,-4.14
2019-02-06T04:26:09.737Z,-4.18
2019-02-06T04:27:09.721Z,-4.19
2019-02-06T04:28:09.713Z,-4.23
2019-02-06T04:29:09.695Z,-4.18
2019-02-06T04:30:09.693Z,-4.14
2019-02-06T04:31:09.692Z,-4.12
2019-02-06T04:32:09.672Z,-4.16
2019-02-06T04:33:09.656Z,-4.18
2019-02-06T04:34:09.648Z,-4.14
2019-02-06T04:35:09.638Z,-4.26
2019-02-06T04:36:09.628Z,-4.34
2019-02-06T04:37:09.633Z,-4.25
2019-02-06T04:38:09.606Z,-4.18
2019-02-06T04:39:09.600Z,-4.18
2019-02-06T04:40:09.592Z,-4.11
2019-02-06T04:41:09.574Z,-4.18
2019-02-06T04:42:09.567Z,-4.11
2019-02-06T04:43:09.664Z,-4.08
2019-02-06T04:44:09.542Z,-4.12
2019-02-06T04:45:09.544Z,-4.05
2019-02-06T04:46:09.526Z,-4.01
2019-02-06T04:47:09.525Z,-4.08
2019-02-06T04:48:09.501Z,-4.15
2019-02-06T04:49:09.514Z,-4.11
2019-02-06T04:50:09.487Z,-4.14
2019-02-06T04:51:09.477Z,-4.09
2019-02-06T04:52:09.467Z,-4.22
2019-02-06T04:53:09.450Z,-4.18
2019-02-06T04:54:09.445Z,-4.19
2019-02-06T04:55:09.476Z,-4.11
2019-02-06T04:56:09.423Z,-4.14
2019-02-06T04:57:09.613Z,-4.09
2019-02-06T04:58:09.405Z,-4.18
2019-02-06T04:59:09.396Z,-4.15
2019-02-06T05:00:09.380Z,-4.19
2019-02-06T05:01:09.386Z,-4.18
2019-02-06T05:02:09.360Z,-4.18
2019-02-06T05:03:09.352Z,-4.25
2019-02-06T05:04:09.341Z,-4.30
2019-02-06T05:05:09.334Z,-4.26
2019-02-06T05:06:09.322Z,-4.25
2019-02-06T05:07:18.719Z,-4.23
2019-02-06T05:08:10.300Z,-4.29
2019-02-06T05:09:09.294Z,-4.33
2019-02-06T05:10:09.280Z,-4.32
2019-02-06T05:11:09.266Z,-4.29
2019-02-06T05:12:09.709Z,-4.33
2019-02-06T05:13:09.356Z,-4.27
2019-02-06T05:14:09.236Z,-4.29
2019-02-06T05:15:09.227Z,-4.30
2019-02-06T05:16:16.313Z,-4.32
2019-02-06T05:17:09.206Z,-4.39
2019-02-06T05:18:09.206Z,-4.30
2019-02-06T05:19:09.209Z,-4.29
2019-02-06T05:20:09.180Z,-4.34
2019-02-06T05:21:09.182Z,-4.33
2019-02-06T05:22:09.159Z,-4.32
2019-02-06T05:23:09.147Z,-4.30
2019-02-06T05:24:09.141Z,-4.34
2019-02-06T05:25:09.146Z,-4.30
2019-02-06T05:26:09.152Z,-4.33
2019-02-06T05:27:09.103Z,-4.18
2019-02-06T05:28:09.104Z,-4.25
2019-02-06T05:29:09.092Z,-4.16
2019-02-06T05:30:09.081Z,-4.15
2019-02-06T05:31:09.107Z,-4.18
2019-02-06T05:32:09.056Z,-4.18
2019-02-06T05:33:09.044Z,-4.14
2019-02-06T05:34:09.041Z,-4.12
2019-02-06T05:35:09.028Z,-4.19
2019-02-06T05:36:09.016Z,-4.19
2019-02-06T05:37:09.024Z,-4.12
2019-02-06T05:38:08.996Z,-4.14
2019-02-06T05:39:08.993Z,-4.12
2019-02-06T05:40:08.977Z,-4.00
2019-02-06T05:41:08.970Z,-4.05
2019-02-06T05:42:08.963Z,-4.12
2019-02-06T05:43:09.045Z,-4.14
2019-02-06T05:44:08.939Z,-4.08
2019-02-06T05:45:08.922Z,-4.18
2019-02-06T05:46:08.918Z,-4.15
2019-02-06T05:47:08.899Z,-4.08
2019-02-06T05:48:08.896Z,-4.06
2019-02-06T05:49:08.911Z,-4.00
2019-02-06T05:50:08.869Z,-4.09
2019-02-06T05:51:08.885Z,-4.12
2019-02-06T05:52:08.852Z,-4.00
2019-02-06T05:53:08.853Z,-4.12
2019-02-06T05:54:08.854Z,-4.09
2019-02-06T05:55:08.837Z,-4.08
2019-02-06T05:56:08.808Z,-4.01
2019-02-06T05:57:08.810Z,-4.04
2019-02-06T05:58:08.805Z,-4.04
2019-02-06T05:59:08.783Z,-3.91
2019-02-06T06:00:08.776Z,-4.06
2019-02-06T06:01:08.786Z,-3.91
2019-02-06T06:02:08.750Z,-3.97
2019-02-06T06:03:08.750Z,-3.97
2019-02-06T06:04:08.731Z,-3.98
2019-02-06T06:05:08.741Z,-4.08
2019-02-06T06:06:11.849Z,-4.08
2019-02-06T06:07:08.712Z,-4.08
2019-02-06T06:08:08.696Z,-4.05
2019-02-06T06:09:08.678Z,-4.05
2019-02-06T06:10:08.685Z,-4.09
2019-02-06T06:11:08.659Z,-4.04
2019-02-06T06:12:08.654Z,-4.04
2019-02-06T06:13:08.659Z,-3.98
2019-02-06T06:14:08.633Z,-4.05
2019-02-06T06:15:08.620Z,-4.01
2019-02-06T06:16:08.613Z,-4.08
2019-02-06T06:17:08.597Z,-4.12
2019-02-06T06:18:08.582Z,-4.14
2019-02-06T06:19:08.589Z,-4.23
2019-02-06T06:20:08.566Z,-4.16
2019-02-06T06:21:08.556Z,-4.14
2019-02-06T06:22:08.542Z,-4.18
2019-02-06T06:23:08.543Z,-4.15
2019-02-06T06:24:09.161Z,-4.12
2019-02-06T06:25:08.535Z,-4.09
2019-02-06T06:26:08.511Z,-4.09
2019-02-06T06:27:08.498Z,-4.05
2019-02-06T06:28:08.490Z,-4.12
2019-02-06T06:29:08.476Z,-4.09
2019-02-06T06:30:08.475Z,-4.14
2019-02-06T06:31:08.480Z,-4.08
2019-02-06T06:32:08.444Z,-4.16
2019-02-06T06:33:08.430Z,-4.11
2019-02-06T06:34:08.434Z,-4.19
2019-02-06T06:35:08.420Z,-4.16
2019-02-06T06:36:08.405Z,-4.19
2019-02-06T06:37:08.405Z,-4.22
2019-02-06T06:38:08.381Z,-4.16
2019-02-06T06:39:08.375Z,-4.32
2019-02-06T06:40:08.379Z,-4.29
2019-02-06T06:41:08.353Z,-4.32
2019-02-06T06:42:08.341Z,-4.30
2019-02-06T06:43:08.346Z,-4.33
2019-02-06T06:44:08.321Z,-4.33
2019-02-06T06:45:08.315Z,-4.30
2019-02-06T06:46:08.311Z,-4.32
2019-02-06T06:47:08.291Z,-4.34
2019-02-06T06:48:08.280Z,-4.33
2019-02-06T06:49:08.305Z,-4.29
2019-02-06T06:50:08.259Z,-4.30
2019-02-06T06:51:08.251Z,-4.29
2019-02-06T06:52:08.239Z,-4.29
2019-02-06T06:53:08.230Z,-4.30
2019-02-06T06:54:08.218Z,-4.32
2019-02-06T06:55:08.221Z,-4.33
2019-02-06T06:56:08.201Z,-4.39
2019-02-06T06:57:08.194Z,-4.50
2019-02-06T06:58:08.200Z,-4.36
2019-02-06T06:59:08.166Z,-4.33
2019-02-06T07:00:08.169Z,-4.30
2019-02-06T07:01:10.845Z,-4.30
2019-02-06T07:02:08.136Z,-4.30
2019-02-06T07:03:08.128Z,-4.32
2019-02-06T07:04:08.116Z,-4.32
2019-02-06T07:05:08.109Z,-4.27
2019-02-06T07:06:08.102Z,-4.26
2019-02-06T07:07:08.127Z,-4.34
2019-02-06T07:08:11.282Z,-4.33
2019-02-06T07:09:09.081Z,-4.22
2019-02-06T07:10:08.060Z,-4.22
2019-02-06T07:11:08.055Z,-4.30
2019-02-06T07:12:08.043Z,-4.27
2019-02-06T07:13:08.046Z,-4.29
2019-02-06T07:14:08.014Z,-4.39
2019-02-06T07:15:08.010Z,-4.47
2019-02-06T07:16:08.007Z,-4.50
2019-02-06T07:17:07.988Z,-4.36
2019-02-06T07:18:07.976Z,-4.33
2019-02-06T07:19:07.989Z,-4.36
2019-02-06T07:20:07.953Z,-4.33
2019-02-06T07:21:07.943Z,-4.47
2019-02-06T07:22:07.936Z,-4.43
2019-02-06T07:23:07.930Z,-4.36
2019-02-06T07:24:07.918Z,-4.34
2019-02-06T07:25:07.921Z,-4.36
2019-02-06T07:26:07.898Z,-4.30
2019-02-06T07:27:07.891Z,-4.37
2019-02-06T07:28:07.878Z,-4.30
2019-02-06T07:29:07.862Z,-4.18
2019-02-06T07:30:07.863Z,-3.77
2019-02-06T07:31:07.859Z,-3.29
2019-02-06T07:32:07.833Z,-2.82
2019-02-06T07:33:07.826Z,-2.55
2019-02-06T07:34:07.815Z,-2.32
2019-02-06T07:35:07.805Z,-2.27
2019-02-06T07:36:07.792Z,-1.94
2019-02-06T07:37:07.805Z,-1.84
2019-02-06T07:38:07.779Z,-1.76
2019-02-06T07:39:07.760Z,-1.73
2019-02-06T07:40:07.760Z,-1.60
2019-02-06T07:41:07.744Z,-1.60
2019-02-06T07:42:07.731Z,-1.68
2019-02-06T07:43:07.737Z,-1.52
2019-02-06T07:44:07.708Z,-1.48
2019-02-06T07:45:07.702Z,-1.35
2019-02-06T07:46:07.689Z,-1.42
2019-02-06T07:47:07.683Z,-1.14
2019-02-06T07:48:07.674Z,-0.82
2019-02-06T07:49:07.699Z,-0.67
2019-02-06T07:50:07.647Z,-0.52
2019-02-06T07:51:07.635Z,-0.31
2019-02-06T07:52:07.635Z,-0.58
2019-02-06T07:53:07.618Z,-0.37
2019-02-06T07:54:07.619Z,-0.22
2019-02-06T07:55:07.619Z,-0.13
2019-02-06T07:56:07.589Z,0.14
2019-02-06T07:57:07.577Z,0.31
2019-02-06T07:58:07.567Z,0.50
2019-02-06T07:59:07.561Z,0.84
2019-02-06T08:00:07.548Z,1.00
2019-02-06T08:01:07.566Z,0.78
2019-02-06T08:02:07.542Z,0.66
2019-02-06T08:03:07.513Z,0.89
2019-02-06T08:04:07.507Z,1.40
2019-02-06T08:05:07.493Z,1.61
2019-02-06T08:06:07.487Z,1.61
2019-02-06T08:07:07.520Z,1.66
2019-02-06T08:08:07.477Z,2.02
2019-02-06T08:09:07.452Z,1.79
2019-02-06T08:10:07.449Z,1.50
2019-02-06T08:11:07.432Z,1.02
2019-02-06T08:12:07.420Z,0.34
2019-02-06T08:13:07.426Z,-0.41
2019-02-06T08:14:07.403Z,-0.70
2019-02-06T08:15:07.391Z,-0.79
2019-02-06T08:16:07.560Z,-0.61
2019-02-06T08:17:07.376Z,-0.84
2019-02-06T08:18:07.362Z,-1.27
2019-02-06T08:19:07.365Z,-1.27
2019-02-06T08:20:07.340Z,-1.11
2019-02-06T08:21:07.330Z,-1.16
2019-02-06T08:22:07.320Z,-0.92
2019-02-06T08:23:07.307Z,-0.56
2019-02-06T08:24:07.299Z,-0.54
2019-02-06T08:25:07.307Z,-0.95
2019-02-06T08:26:07.284Z,-1.07
2019-02-06T08:27:07.264Z,-1.04
2019-02-06T08:28:07.251Z,-0.96
2019-02-06T08:29:07.245Z,-0.87
2019-02-06T08:30:07.246Z,-0.18
2019-02-06T08:31:07.239Z,-0.15
2019-02-06T08:32:07.220Z,-0.55
2019-02-06T08:33:07.209Z,-0.85
2019-02-06T08:34:07.191Z,-0.99
2019-02-06T08:35:07.187Z,-0.87
2019-02-06T08:36:07.172Z,-0.74
2019-02-06T08:37:07.185Z,-0.76
2019-02-06T08:38:07.163Z,-0.70
2019-02-06T08:39:07.143Z,-0.85
2019-02-06T08:40:07.136Z,-0.84
2019-02-06T08:41:07.125Z,-0.89
2019-02-06T08:42:07.114Z,-0.98
2019-02-06T08:43:07.120Z,-0.87
2019-02-06T08:44:07.091Z,-0.76
2019-02-06T08:45:07.086Z,-0.62
2019-02-06T08:46:07.070Z,-0.59
2019-02-06T08:47:07.061Z,-0.27
2019-02-06T08:48:07.072Z,-0.20
2019-02-06T08:49:07.054Z,-0.15
2019-02-06T08:50:07.035Z,0.50
2019-02-06T08:51:07.025Z,1.14
2019-02-06T08:52:07.032Z,2.05
2019-02-06T08:53:06.996Z,2.41
2019-02-06T08:54:06.990Z,2.80
2019-02-06T08:55:06.991Z,3.14
2019-02-06T08:56:06.971Z,3.19
2019-02-06T08:57:06.958Z,3.71
2019-02-06T08:58:06.952Z,4.04
2019-02-06T08:59:06.939Z,3.82
2019-02-06T09:00:06.924Z,3.82
2019-02-06T09:01:06.954Z,3.84
2019-02-06T09:02:06.901Z,3.61
2019-02-06T09:03:06.891Z,3.97
2019-02-06T09:04:06.884Z,4.12
2019-02-06T09:05:07.650Z,4.24
2019-02-06T09:06:06.870Z,4.47
2019-02-06T09:07:06.865Z,4.61
2019-02-06T09:08:06.842Z,4.83
2019-02-06T09:09:06.827Z,5.08
2019-02-06T09:10:06.827Z,5.00
2019-02-06T09:11:06.819Z,4.68
2019-02-06T09:12:06.803Z,4.78
2019-02-06T09:13:06.804Z,5.23
2019-02-06T09:14:06.772Z,5.33
2019-02-06T09:15:06.766Z,5.13
2019-02-06T09:16:06.767Z,5.05
2019-02-06T09:17:06.747Z,5.02
2019-02-06T09:18:06.739Z,4.75
2019-02-06T09:19:06.737Z,5.55
2019-02-06T09:20:06.718Z,5.63
2019-02-06T09:21:06.714Z,5.57
2019-02-06T09:22:06.701Z,5.46
2019-02-06T09:23:06.687Z,5.30
2019-02-06T09:24:06.674Z,5.23
2019-02-06T09:25:06.682Z,4.84
2019-02-06T09:26:06.652Z,4.65
2019-02-06T09:27:06.635Z,4.88
2019-02-06T09:28:06.632Z,4.64
2019-02-06T09:29:06.622Z,4.90
2019-02-06T09:30:06.606Z,5.08
2019-02-06T09:31:06.616Z,5.13
2019-02-06T09:32:06.584Z,5.03
2019-02-06T09:33:06.578Z,5.13
2019-02-06T09:34:09.490Z,5.13
2019-02-06T09:35:06.559Z,5.24
2019-02-06T09:36:06.543Z,5.05
2019-02-06T09:37:06.555Z,5.26
2019-02-06T09:38:06.527Z,5.63
2019-02-06T09:39:11.680Z,6.39
2019-02-06T09:40:07.499Z,6.15
2019-02-06T09:41:06.493Z,6.54
2019-02-06T09:42:06.483Z,6.76
2019-02-06T09:43:06.489Z,7.18
2019-02-06T09:44:06.457Z,7.45
2019-02-06T09:45:06.451Z,7.41
2019-02-06T09:46:06.442Z,7.44
2019-02-06T09:47:06.428Z,7.56
2019-02-06T09:48:06.422Z,7.22
2019-02-06T09:49:06.429Z,6.72
2019-02-06T09:50:06.396Z,6.52
2019-02-06T09:51:06.390Z,6.58
2019-02-06T09:52:06.374Z,6.43
2019-02-06T09:53:06.364Z,6.49
2019-02-06T09:54:06.355Z,6.58
2019-02-06T09:55:06.369Z,6.85
2019-02-06T09:56:06.332Z,7.09
2019-02-06T09:57:06.326Z,6.88
2019-02-06T09:58:06.309Z,7.08
2019-02-06T09:59:06.302Z,7.74
2019-02-06T10:00:06.295Z,7.89
2019-02-06T10:01:06.291Z,7.45
2019-02-06T10:02:09.396Z,7.61
2019-02-06T10:03:06.254Z,7.15
2019-02-06T10:04:06.246Z,7.01
2019-02-06T10:05:06.246Z,7.29
2019-02-06T10:06:06.224Z,7.75
2019-02-06T10:07:06.230Z,8.39
2019-02-06T10:08:06.205Z,8.26
2019-02-06T10:09:06.192Z,8.43
2019-02-06T10:10:06.182Z,8.22
2019-02-06T10:11:06.173Z,8.14
2019-02-06T10:12:06.166Z,8.14
2019-02-06T10:13:06.173Z,8.39
2019-02-06T10:14:06.234Z,8.53
2019-02-06T10:15:06.131Z,8.89
2019-02-06T10:16:06.124Z,8.26
2019-02-06T10:17:06.112Z,8.54
2019-02-06T10:18:06.095Z,8.87
2019-02-06T10:19:06.111Z,8.61
2019-02-06T10:20:06.082Z,8.67
2019-02-06T10:21:06.069Z,8.50
2019-02-06T10:22:06.132Z,8.35
2019-02-06T10:23:06.050Z,8.24
2019-02-06T10:24:06.034Z,8.09
2019-02-06T10:25:06.122Z,8.11
2019-02-06T10:26:06.012Z,8.44
2019-02-06T10:27:05.999Z,9.05
2019-02-06T10:28:05.993Z,9.59
2019-02-06T10:29:05.983Z,9.59
2019-02-06T10:30:05.967Z,9.14
2019-02-06T10:31:05.973Z,9.21
2019-02-06T10:32:05.951Z,9.05
2019-02-06T10:33:05.939Z,9.30
2019-02-06T10:34:05.925Z,9.39
2019-02-06T10:35:05.914Z,9.42
2019-02-06T10:36:05.903Z,8.98
2019-02-06T10:37:05.909Z,9.12
2019-02-06T10:38:05.887Z,9.38
2019-02-06T10:39:05.873Z,9.48
2019-02-06T10:40:05.859Z,8.83
2019-02-06T10:41:05.853Z,8.71
2019-02-06T10:42:05.840Z,9.27
2019-02-06T10:43:05.848Z,8.72
2019-02-06T10:44:05.827Z,8.34
2019-02-06T10:45:05.812Z,7.89
2019-02-06T10:46:05.795Z,8.07
2019-02-06T10:47:05.787Z,8.71
2019-02-06T10:48:05.773Z,8.77
2019-02-06T10:49:05.789Z,9.01
2019-02-06T10:50:05.757Z,8.74
2019-02-06T10:51:05.747Z,8.82
2019-02-06T10:52:05.733Z,8.60
2019-02-06T10:53:05.722Z,8.44
2019-02-06T10:54:05.715Z,8.09
2019-02-06T10:55:05.716Z,8.14
2019-02-06T10:56:05.689Z,8.10
2019-02-06T10:57:05.679Z,7.68
2019-02-06T10:58:05.670Z,7.52
2019-02-06T10:59:05.657Z,7.49
2019-02-06T11:00:05.644Z,7.08
2019-02-06T11:01:05.650Z,7.03
2019-02-06T11:02:05.622Z,7.04
2019-02-06T11:03:05.615Z,7.41
2019-02-06T11:04:05.606Z,7.68
2019-02-06T11:05:05.590Z,7.04
2019-02-06T11:06:05.581Z,6.94
2019-02-06T11:07:08.132Z,7.30
2019-02-06T11:08:05.561Z,7.34
2019-02-06T11:09:05.555Z,7.61
2019-02-06T11:10:05.542Z,7.63
2019-02-06T11:11:05.529Z,7.83
2019-02-06T11:12:05.516Z,7.47
2019-02-06T11:13:05.544Z,7.21
2019-02-06T11:14:05.499Z,7.11
2019-02-06T11:15:05.493Z,6.70
2019-02-06T11:16:05.474Z,6.43
2019-02-06T11:17:12.512Z,6.14
2019-02-06T11:18:05.451Z,6.40
2019-02-06T11:19:05.455Z,6.90
2019-02-06T11:20:05.435Z,7.22
2019-02-06T11:21:05.419Z,7.01
2019-02-06T11:22:05.410Z,7.56
2019-02-06T11:23:05.399Z,7.05
2019-02-06T11:24:05.384Z,7.44
2019-02-06T11:25:05.394Z,7.70
2019-02-06T11:26:05.365Z,7.34
2019-02-06T11:27:05.355Z,7.26
2019-02-06T11:28:05.345Z,7.08
2019-02-06T11:29:05.334Z,7.45
2019-02-06T11:30:05.321Z,7.89
2019-02-06T11:31:05.334Z,7.92
2019-02-06T11:32:05.303Z,7.49
2019-02-06T11:33:05.291Z,7.51
2019-02-06T11:34:05.287Z,7.64
2019-02-06T11:35:05.272Z,7.44
2019-02-06T11:36:05.414Z,7.58
2019-02-06T11:37:05.273Z,7.30
2019-02-06T11:38:05.237Z,7.26
2019-02-06T11:39:05.230Z,7.03
2019-02-06T11:40:05.219Z,6.95
2019-02-06T11:41:05.207Z,7.05
2019-02-06T11:42:05.191Z,7.01
2019-02-06T11:43:05.198Z,7.11
2019-02-06T11:44:05.175Z,7.04
2019-02-06T11:45:05.173Z,7.31
2019-02-06T11:46:05.150Z,7.23
2019-02-06T11:47:05.137Z,6.94
2019-02-06T11:48:05.127Z,7.04
2019-02-06T11:49:05.143Z,7.26
2019-02-06T11:50:05.102Z,7.12
2019-02-06T11:51:05.095Z,7.19
2019-02-06T11:52:05.080Z,7.30
2019-02-06T11:53:05.076Z,7.55
2019-02-06T11:54:05.063Z,7.74
2019-02-06T11:55:05.069Z,7.55
2019-02-06T11:56:05.041Z,7.26
2019-02-06T11:57:05.028Z,7.04
2019-02-06T11:58:05.018Z,7.26
2019-02-06T11:59:05.009Z,7.29
2019-02-06T12:00:04.999Z,7.12
2019-02-06T12:01:05.002Z,6.80
2019-02-06T12:02:04.973Z,6.67
2019-02-06T12:03:04.964Z,6.60
2019-02-06T12:04:04.958Z,6.46
2019-02-06T12:05:04.941Z,6.06
2019-02-06T12:06:04.932Z,5.89
2019-02-06T12:07:04.938Z,5.66
2019-02-06T12:08:04.920Z,5.98
2019-02-06T12:09:04.901Z,6.10
2019-02-06T12:10:09.706Z,6.43
2019-02-06T12:11:05.878Z,6.83
2019-02-06T12:12:04.879Z,6.62
2019-02-06T12:13:04.885Z,6.80
2019-02-06T12:14:04.848Z,6.91
2019-02-06T12:15:04.841Z,7.04
2019-02-06T12:16:04.824Z,7.27
2019-02-06T12:17:04.815Z,7.67
2019-02-06T12:18:04.806Z,8.19
2019-02-06T12:19:04.809Z,8.52
2019-02-06T12:20:04.786Z,8.50
2019-02-06T12:21:04.772Z,8.16
2019-02-06T12:22:04.775Z,8.13
2019-02-06T12:23:04.766Z,7.85
2019-02-06T12:24:04.742Z,7.48
2019-02-06T12:25:04.754Z,7.29
2019-02-06T12:26:04.723Z,7.15
2019-02-06T12:27:04.713Z,7.31
2019-02-06T12:28:05.288Z,7.37
2019-02-06T12:29:04.698Z,7.58
2019-02-06T12:30:04.678Z,7.78
2019-02-06T12:31:04.687Z,7.96
2019-02-06T12:32:04.663Z,8.10
2019-02-06T12:33:04.645Z,8.34
2019-02-06T12:34:04.638Z,8.52
2019-02-06T12:35:04.630Z,8.65
2019-02-06T12:36:04.617Z,8.85
2019-02-06T12:37:04.627Z,9.03
2019-02-06T12:38:04.591Z,9.21
2019-02-06T12:39:04.587Z,9.35
2019-02-06T12:40:04.577Z,9.64
2019-02-06T12:41:04.567Z,10.07
2019-02-06T12:42:04.562Z,9.70
2019-02-06T12:43:04.559Z,9.08
2019-02-06T12:44:04.530Z,8.47
2019-02-06T12:45:04.518Z,7.86
2019-02-06T12:46:04.509Z,7.34
2019-02-06T12:47:04.498Z,7.05
2019-02-06T12:48:04.487Z,7.27
2019-02-06T12:49:04.621Z,7.19
2019-02-06T12:50:04.463Z,7.22
2019-02-06T12:51:04.453Z,7.34
2019-02-06T12:52:04.448Z,7.40
2019-02-06T12:53:04.438Z,7.73
2019-02-06T12:54:04.425Z,7.78
2019-02-06T12:55:04.429Z,7.82
2019-02-06T12:56:04.404Z,7.82
2019-02-06T12:57:04.393Z,7.49
2019-02-06T12:58:04.380Z,7.16
2019-02-06T12:59:04.372Z,7.03
2019-02-06T13:00:04.358Z,6.73
2019-02-06T13:01:04.364Z,6.76